Time;durP1;ratioP1;P1;durP2;ratioP2;P2;SDS_P1;SDS_P2;PMS_P1;PMS_P2;Temp;Humidity;BMP_temperature;BMP_pressure;BME280_temperature;BME280_humidity;BME280_pressure;Samples;Min_cycle;Max_cycle;Signal;HPM_P1;HPM_P2
2021/01/18 00:00:13;;;;;;;41.58;20.32;;;;;;;-5.84;56.38;96599.58;1781455;80;21214;-52
2021/01/18 00:02:41;;;;;;;43.28;20.62;;;;;;;-5.85;56.23;96597.92;1778456;80;21582;-52
2021/01/18 00:05:10;;;;;;;40.58;19.90;;;;;;;-5.92;56.17;96597.95;1779694;80;21086;-52
2021/01/18 00:07:48;;;;;;;44.88;20.45;;;;;;;-5.98;56.22;96604.32;1776553;80;28077;-52
2021/01/18 00:10:22;;;;;;;44.42;20.70;;;;;;;-6.07;56.51;96598.48;1781015;80;21105;-52
2021/01/18 00:12:52;;;;;;;43.30;20.50;;;;;;;-6.08;56.63;96600.61;1773221;80;21216;-50
2021/01/18 00:15:21;;;;;;;41.00;19.62;;;;;;;-6.05;56.51;96596.77;1785665;80;21062;-51
2021/01/18 00:17:51;;;;;;;43.25;20.23;;;;;;;-6.09;56.50;96603.53;1778172;79;21061;-51
2021/01/18 00:20:22;;;;;;;47.55;20.88;;;;;;;-6.07;56.56;96606.88;1794342;79;27169;-52
2021/01/18 00:22:52;;;;;;;43.23;21.07;;;;;;;-6.03;56.40;96607.73;1790466;79;21093;-52
2021/01/18 00:25:24;;;;;;;40.30;20.23;;;;;;;-6.04;56.47;96606.05;1789817;79;21486;-51
2021/01/18 00:27:52;;;;;;;43.17;20.25;;;;;;;-6.01;56.56;96604.77;1788412;79;21128;-52
2021/01/18 00:30:23;;;;;;;40.10;20.43;;;;;;;-5.99;56.39;96608.12;1792807;79;21066;-52
2021/01/18 00:32:51;;;;;;;40.52;19.48;;;;;;;-5.96;56.35;96603.85;1794913;79;21588;-52
2021/01/18 00:35:20;;;;;;;;;;;;;;;-5.92;56.08;96599.21;1793383;79;21074;-52
2021/01/18 00:37:50;;;;;;;40.03;20.08;;;;;;;-5.91;55.98;96602.56;1786473;79;21214;-51
2021/01/18 00:40:24;;;;;;;45.55;20.35;;;;;;;-5.94;56.09;96603.84;1792425;79;21513;-51
2021/01/18 00:42:52;;;;;;;39.88;19.15;;;;;;;-5.88;55.96;96605.52;1769951;79;21498;-52
2021/01/18 00:45:22;;;;;;;45.00;21.00;;;;;;;-5.83;55.81;96609.69;1788375;79;21616;-51
2021/01/18 00:47:53;;;;;;;46.02;20.02;;;;;;;-5.81;55.63;96607.98;1798485;79;21057;-52
2021/01/18 00:50:25;;;;;;;40.65;20.43;;;;;;;-5.78;55.67;96612.19;1760182;81;21510;-50
2021/01/18 00:52:54;;;;;;;38.13;19.00;;;;;;;-5.73;55.52;96601.63;1778997;80;21109;-51
2021/01/18 00:55:24;;;;;;;42.85;20.32;;;;;;;-5.75;55.17;96612.17;1762295;80;21191;-53
2021/01/18 00:58:12;;;;;;;40.80;19.45;;;;;;;-5.80;55.27;96612.62;1780849;80;21062;-52
2021/01/18 01:00:41;;;;;;;38.17;17.67;;;;;;;-5.82;55.16;96602.93;1794583;79;21557;-52
2021/01/18 01:03:10;;;;;;;;;;;;;;;-5.86;54.71;96599.59;1790433;79;21261;-51
2021/01/18 01:05:38;;;;;;;33.02;16.25;;;;;;;-5.89;54.36;96600.03;1778055;79;20498;-51
2021/01/18 01:08:06;;;;;;;37.08;17.75;;;;;;;-6.03;54.43;96610.27;1810224;79;21108;-52
2021/01/18 01:10:35;;;;;;;34.27;17.25;;;;;;;-6.10;54.62;96605.66;1785601;80;21193;-51
2021/01/18 01:13:07;;;;;;;35.90;17.07;;;;;;;-6.15;54.81;96612.39;1786598;80;21045;-52
2021/01/18 01:15:35;;;;;;;35.80;17.65;;;;;;;-6.18;54.68;96615.79;1770998;80;21324;-52
2021/01/18 01:18:03;;;;;;;36.93;16.93;;;;;;;-6.20;54.83;96628.86;1789749;79;21081;-51
2021/01/18 01:20:30;;;;;;;34.67;17.37;;;;;;;-6.19;54.88;96627.16;1778757;80;21102;-51
2021/01/18 01:22:58;;;;;;;37.85;18.45;;;;;;;-6.19;54.83;96630.52;1742301;81;21534;-51
2021/01/18 01:25:27;;;;;;;32.90;16.95;;;;;;;-6.20;54.79;96625.47;1766446;81;21121;-51
2021/01/18 01:27:56;;;;;;;35.17;17.40;;;;;;;-6.25;54.82;96626.77;1742635;81;21211;-51
2021/01/18 01:30:24;;;;;;;37.70;18.40;;;;;;;-6.26;54.79;96628.04;1752569;81;21172;-51
2021/01/18 01:32:53;;;;;;;36.17;17.30;;;;;;;-6.25;54.68;96624.65;1762071;80;25435;-53
2021/01/18 01:35:24;;;;;;;38.73;18.85;;;;;;;-6.22;54.57;96634.75;1753826;81;21490;-50
2021/01/18 01:37:52;;;;;;;47.70;20.97;;;;;;;-6.27;54.46;96630.97;1726181;82;21184;-52
2021/01/18 01:40:20;;;;;;;70.57;26.62;;;;;;;-6.28;54.50;96634.36;1761292;80;21388;-51
2021/01/18 01:42:48;;;;;;;57.20;22.80;;;;;;;-6.29;54.49;96626.36;1761288;80;21065;-51
2021/01/18 01:45:18;;;;;;;57.78;22.48;;;;;;;-6.28;54.47;96625.52;1756794;81;21117;-51
2021/01/18 01:47:52;;;;;;;58.38;21.00;;;;;;;-6.25;54.39;96628.44;1756770;80;21172;-52
2021/01/18 01:50:27;;;;;;;42.30;18.90;;;;;;;-6.25;54.39;96619.59;1778942;80;21094;-51
2021/01/18 01:53:09;;;;;;;47.05;20.08;;;;;;;-6.22;54.35;96616.63;1785942;80;22364;-51
2021/01/18 01:55:36;;;;;;;45.67;19.77;;;;;;;-6.18;54.19;96613.70;1756891;80;21132;-52
2021/01/18 01:58:06;;;;;;;48.52;21.42;;;;;;;-6.15;54.17;96617.45;1761075;80;21152;-52
2021/01/18 02:00:37;;;;;;;45.95;19.65;;;;;;;-6.12;54.21;96613.65;1765442;80;21193;-52
2021/01/18 02:03:15;;;;;;;42.67;18.25;;;;;;;-6.06;53.97;96618.68;1781152;80;21144;-51
2021/01/18 02:08:21;;;;;;;44.33;19.40;;;;;;;-6.02;53.80;96622.02;1881776;76;22674;-51
2021/01/18 02:10:48;;;;;;;39.98;19.35;;;;;;;-6.07;53.82;96619.95;1847837;77;21573;-51
2021/01/18 02:13:27;;;;;;;40.90;18.73;;;;;;;-6.09;53.64;96624.17;1843113;77;22234;-51
2021/01/18 02:16:03;;;;;;;43.48;19.25;;;;;;;-6.12;53.72;96625.88;1846650;77;21573;-52
2021/01/18 02:18:55;;;;;;;40.78;19.17;;;;;;;-6.08;53.79;96629.22;1777268;80;20937;-51
2021/01/18 02:21:40;;;;;;;39.88;19.42;;;;;;;-6.02;53.77;96627.08;1792407;80;21058;-51
2021/01/18 02:24:19;;;;;;;40.00;19.10;;;;;;;-6.00;53.83;96627.94;1714102;80;21052;-52
2021/01/18 02:27:24;;;;;;;43.30;19.12;;;;;;;-5.97;53.75;96624.10;1788576;80;21366;-52
2021/01/18 02:30:05;;;;;;;44.75;19.48;;;;;;;-5.96;53.55;96626.59;1765174;80;21149;-51
2021/01/18 02:32:44;;;;;;;40.63;18.87;;;;;;;-5.98;53.48;96630.02;1744987;80;21148;-52
2021/01/18 02:35:37;;;;;;;37.78;18.40;;;;;;;-5.98;53.23;96632.11;1758928;79;21515;-52
2021/01/18 02:38:20;;;;;;;43.23;19.73;;;;;;;-5.99;53.11;96634.64;1791764;80;21116;-52
2021/01/18 02:41:02;;;;;;;45.88;19.87;;;;;;;-6.03;53.22;96645.20;1788931;79;21214;-52
2021/01/18 02:43:49;;;;;;;51.42;20.50;;;;;;;-6.05;53.16;96637.19;1755440;78;21063;-51
2021/01/18 02:46:19;;;;;;;42.13;18.67;;;;;;;-6.09;52.63;96633.02;1775490;80;21161;-55
2021/01/18 02:48:48;;;;;;;33.85;17.12;;;;;;;-6.20;52.43;96642.75;1785224;80;21136;-52
2021/01/18 02:51:18;;;;;;;35.78;17.35;;;;;;;-6.31;52.43;96638.98;1824893;78;26880;-51
2021/01/18 02:54:01;;;;;;;32.65;15.40;;;;;;;-6.48;52.40;96639.05;1781457;80;21370;-53
2021/01/18 02:56:36;;;;;;;30.57;14.40;;;;;;;-6.63;52.38;96633.19;1779253;80;21129;-52
2021/01/18 02:59:04;;;;;;;32.98;16.97;;;;;;;-6.78;52.57;96639.94;1809739;77;21581;-53
2021/01/18 03:02:00;;;;;;;35.13;16.57;;;;;;;-6.90;52.79;96643.75;1802095;78;21490;-51
2021/01/18 03:04:54;;;;;;;38.58;17.80;;;;;;;-6.95;52.95;96638.70;1795543;78;21061;-52
2021/01/18 03:07:47;;;;;;;36.68;16.70;;;;;;;-6.95;53.15;96636.61;1794313;78;21490;-52
2021/01/18 03:10:45;;;;;;;37.67;16.48;;;;;;;-6.91;53.21;96639.53;1787364;79;21149;-50
2021/01/18 03:13:38;;;;;;;36.75;16.95;;;;;;;-6.94;53.01;96641.66;1786923;79;21510;-51
2021/01/18 03:16:17;;;;;;;39.20;18.30;;;;;;;-6.96;53.18;96643.31;1729223;78;21529;-51
2021/01/18 03:18:46;;;;;;;36.33;16.62;;;;;;;-6.99;53.31;96641.22;1813621;78;21105;-51
2021/01/18 03:21:15;;;;;;;30.80;15.88;;;;;;;-7.00;53.23;96632.83;1791781;78;21774;-51
2021/01/18 03:23:44;;;;;;;33.63;16.32;;;;;;;-7.00;53.15;96641.66;1803835;78;21069;-51
2021/01/18 03:26:12;;;;;;;34.48;16.93;;;;;;;-7.03;53.30;96639.13;1784248;78;21470;-52
2021/01/18 03:28:40;;;;;;;31.50;15.63;;;;;;;-7.00;53.40;96647.96;1795531;78;21054;-52
2021/01/18 03:31:07;;;;;;;31.03;16.07;;;;;;;-6.95;53.31;96646.70;1787177;80;21042;-51
2021/01/18 03:33:35;;;;;;;31.45;15.38;;;;;;;-6.93;53.17;96643.31;1787045;80;21213;-51
2021/01/18 03:36:04;;;;;;;33.53;16.75;;;;;;;-6.89;52.97;96648.80;1794391;78;21206;-51
2021/01/18 03:38:32;;;;;;;30.00;14.87;;;;;;;-6.94;52.79;96642.92;1787654;78;21204;-51
2021/01/18 03:41:01;;;;;;;33.08;16.17;;;;;;;-7.01;52.56;96642.91;1787489;78;21061;-51
2021/01/18 03:43:29;;;;;;;32.63;16.70;;;;;;;-7.08;52.66;96642.91;1787711;78;21132;-49
2021/01/18 03:45:56;;;;;;;32.10;15.85;;;;;;;-7.15;52.84;96646.28;1786996;80;21196;-52
2021/01/18 03:48:25;;;;;;;34.53;16.05;;;;;;;-7.17;52.91;96644.19;1786990;80;21114;-51
2021/01/18 03:50:52;;;;;;;30.50;15.63;;;;;;;-7.15;52.95;96640.41;1787606;78;21069;-51
2021/01/18 03:53:20;;;;;;;32.83;16.32;;;;;;;-7.12;53.00;96646.69;1787539;78;21522;-51
2021/01/18 03:55:48;;;;;;;32.95;15.98;;;;;;;-7.12;52.88;96645.42;1788696;78;21133;-51
2021/01/18 03:58:18;;;;;;;33.65;16.02;;;;;;;-7.19;52.94;96639.97;1789075;78;21541;-51
2021/01/18 04:00:46;;;;;;;34.43;15.88;;;;;;;-7.23;53.01;96643.75;1786815;80;21113;-51
2021/01/18 04:03:17;;;;;;;31.48;15.88;;;;;;;-7.27;53.28;96637.44;1789797;78;21156;-51
2021/01/18 04:05:45;;;;;;;32.30;14.43;;;;;;;-7.27;53.17;96639.56;1787202;78;21105;-52
2021/01/18 04:08:14;;;;;;;32.42;16.02;;;;;;;-7.25;53.19;96649.66;1793051;78;21596;-51
2021/01/18 04:10:41;;;;;;;30.48;14.87;;;;;;;-7.19;53.08;96645.02;1703830;83;21209;-51
2021/01/18 04:13:09;;;;;;;32.83;15.65;;;;;;;-7.19;53.04;96650.06;1743741;81;21093;-51
2021/01/18 04:15:37;;;;;;;36.75;16.30;;;;;;;-7.19;53.04;96650.89;1808934;78;21612;-52
2021/01/18 04:18:05;;;;;;;30.27;15.35;;;;;;;-7.17;53.07;96653.41;1798994;78;21950;-50
2021/01/18 04:20:34;;;;;;;28.23;15.10;;;;;;;-7.13;53.04;96652.16;1730351;81;21128;-51
2021/01/18 04:25:40;;;;;;;33.53;15.93;;;;;;;-7.04;53.06;96647.52;1886070;75;22725;-51
2021/01/18 04:28:07;;;;;;;30.70;15.65;;;;;;;-7.05;52.91;96644.17;1785159;80;21602;-51
2021/01/18 04:30:36;;;;;;;29.00;15.05;;;;;;;-7.03;52.91;96643.74;1813855;78;22188;-51
2021/01/18 04:33:07;;;;;;;33.13;15.85;;;;;;;-6.99;52.87;96633.26;1781966;80;21600;-52
2021/01/18 04:35:37;;;;;;;30.45;15.95;;;;;;;-6.97;52.75;96639.13;1810434;77;21141;-51
2021/01/18 04:38:05;;;;;;;34.70;15.88;;;;;;;-6.94;52.60;96638.27;1815590;77;21011;-51
2021/01/18 04:40:34;;;;;;;34.15;16.20;;;;;;;-6.94;52.63;96637.88;1773667;78;21549;-52
2021/01/18 04:43:02;;;;;;;29.07;14.98;;;;;;;-6.89;52.58;96637.44;1810008;78;21539;-51
2021/01/18 04:45:30;;;;;;;29.05;16.30;;;;;;;-6.89;52.46;96634.05;1803146;78;21461;-51
2021/01/18 04:47:59;;;;;;;33.92;15.98;;;;;;;-6.92;52.38;96640.39;1826258;78;21080;-51
2021/01/18 04:50:28;;;;;;;31.03;15.00;;;;;;;-6.99;52.31;96638.70;1823723;78;21044;-51
2021/01/18 04:53:15;;;;;;;33.53;16.20;;;;;;;-7.05;52.22;96640.39;1803916;78;21085;-51
2021/01/18 04:55:55;;;;;;;32.03;15.83;;;;;;;-7.17;52.28;96635.77;1812791;77;22067;-51
2021/01/18 04:58:30;;;;;;;33.48;19.30;;;;;;;-7.15;52.47;96636.62;1860873;76;27911;-51
2021/01/18 05:01:03;;;;;;;32.93;17.37;;;;;;;-7.12;52.28;96645.02;1823603;77;21070;-52
2021/01/18 05:03:36;;;;;;;34.30;17.05;;;;;;;-7.13;52.19;96647.55;1843048;77;21377;-51
2021/01/18 05:06:35;;;;;;;31.48;15.85;;;;;;;-7.16;52.20;96639.98;1848386;77;21114;-51
2021/01/18 05:09:28;;;;;;;32.55;16.60;;;;;;;-7.22;52.08;96648.36;1834542;77;21124;-53
2021/01/18 05:11:58;;;;;;;34.03;16.00;;;;;;;-7.28;52.23;96653.00;1840442;77;21611;-50
2021/01/18 05:14:26;;;;;;;29.95;15.83;;;;;;;-7.36;52.32;96660.14;1836920;77;21064;-51
2021/01/18 05:16:57;;;;;;;32.20;16.73;;;;;;;-7.36;52.57;96663.50;1855048;77;21259;-52
2021/01/18 05:19:28;;;;;;;36.20;18.02;;;;;;;-7.30;52.64;96670.21;1829364;77;21153;-51
2021/01/18 05:21:58;;;;;;;28.73;15.90;;;;;;;-7.25;52.52;96666.88;1785778;79;21134;-52
2021/01/18 05:24:25;;;;;;;33.15;16.40;;;;;;;-7.15;52.28;96670.67;1774897;80;21148;-51
2021/01/18 05:27:07;;;;;;;31.80;16.52;;;;;;;-7.14;52.09;96671.91;1785928;80;21144;-52
2021/01/18 05:29:37;;;;;;;31.15;16.20;;;;;;;-7.14;52.03;96681.99;1790694;80;21405;-50
2021/01/18 05:32:22;;;;;;;31.80;15.93;;;;;;;-7.11;52.02;96686.20;1771691;80;21140;-50
2021/01/18 05:34:53;;;;;;;34.88;17.77;;;;;;;-7.11;51.95;96686.20;1808973;78;21196;-52
2021/01/18 05:37:20;;;;;;;34.43;17.65;;;;;;;-7.14;52.01;96684.94;1757832;80;21477;-51
2021/01/18 05:39:48;;;;;;;35.33;16.62;;;;;;;-7.14;52.05;96693.77;1793784;78;21154;-51
2021/01/18 05:42:21;;;;;;;31.70;16.52;;;;;;;-7.16;52.05;96696.29;1746461;80;21387;-50
2021/01/18 05:44:48;;;;;;;31.95;17.75;;;;;;;-7.13;52.13;96699.24;1768159;80;21077;-51
2021/01/18 05:47:15;;;;;;;32.88;16.32;;;;;;;-7.06;52.20;96695.45;1759565;80;21144;-50
2021/01/18 05:49:47;;;;;;;31.75;15.68;;;;;;;-6.97;52.01;96699.67;1760555;80;21123;-51
2021/01/18 05:52:25;;;;;;;36.75;17.37;;;;;;;-6.96;51.61;96695.45;1816758;78;21133;-52
2021/01/18 05:55:25;;;;;;;35.63;16.52;;;;;;;-7.00;51.72;96692.10;1780829;78;21360;-51
2021/01/18 05:57:59;;;;;;;32.35;16.93;;;;;;;-6.97;51.62;96693.36;1768546;79;22074;-52
2021/01/18 06:00:38;;;;;;;33.10;16.50;;;;;;;-7.00;51.50;96698.41;1768116;80;21170;-52
2021/01/18 06:03:11;;;;;;;33.08;15.95;;;;;;;-7.06;51.73;96697.13;1744614;80;21132;-52
2021/01/18 06:05:41;;;;;;;36.00;18.45;;;;;;;-7.05;51.74;96703.45;1746342;80;21060;-51
2021/01/18 06:08:17;;;;;;;34.95;17.23;;;;;;;-7.05;51.69;96694.61;1751390;80;21200;-52
2021/01/18 06:10:47;;;;;;;35.28;16.82;;;;;;;-7.08;51.70;96704.70;1763579;80;21144;-51
2021/01/18 06:13:34;;;;;;;80.70;35.23;;;;;;;-7.07;52.04;96700.09;1759782;80;21149;-52
2021/01/18 06:16:09;;;;;;;34.43;16.87;;;;;;;-6.96;52.11;96702.59;1761659;79;21165;-52
2021/01/18 06:18:41;;;;;;;33.48;16.80;;;;;;;-6.86;51.87;96697.12;1757644;80;21229;-54
2021/01/18 06:21:10;;;;;;;36.68;16.20;;;;;;;-6.77;51.55;96705.97;1762574;80;21371;-51
2021/01/18 06:23:39;;;;;;;31.27;16.27;;;;;;;-6.74;51.33;96703.88;1763150;80;21123;-51
2021/01/18 06:26:08;;;;;;;35.13;17.85;;;;;;;-6.79;51.10;96703.02;1780884;80;21073;-51
2021/01/18 06:28:37;;;;;;;29.40;15.38;;;;;;;-6.93;51.36;96701.77;1750918;80;21590;-52
2021/01/18 06:31:08;;;;;;;33.90;16.17;;;;;;;-6.93;51.44;96704.29;1758951;80;21183;-51
2021/01/18 06:33:41;;;;;;;32.48;16.70;;;;;;;-6.93;51.58;96706.38;1757308;80;22364;-52
2021/01/18 06:36:19;;;;;;;35.85;17.70;;;;;;;-6.91;51.49;96709.77;1767514;80;21501;-51
2021/01/18 06:39:05;;;;;;;37.23;17.55;;;;;;;-6.85;51.51;96709.75;1767238;80;21584;-51
2021/01/18 06:41:34;;;;;;;40.12;17.35;;;;;;;-6.81;51.41;96709.75;1765559;80;21152;-52
2021/01/18 06:44:03;;;;;;;35.88;17.45;;;;;;;-6.76;51.28;96718.16;1802095;78;21156;-52
2021/01/18 06:46:36;;;;;;;36.55;18.25;;;;;;;-6.71;51.09;96713.55;1810013;79;21409;-52
2021/01/18 06:49:04;;;;;;;33.40;16.95;;;;;;;-6.69;51.10;96718.59;1803448;79;21595;-52
2021/01/18 06:51:33;;;;;;;31.33;16.35;;;;;;;-6.70;51.11;96721.52;1815408;78;21125;-53
2021/01/18 06:54:02;;;;;;;33.78;16.02;;;;;;;-6.75;51.23;96715.64;1806256;79;21140;-51
2021/01/18 06:56:55;;;;;;;36.35;17.35;;;;;;;-6.78;51.03;96718.59;1757823;79;21052;-52
2021/01/18 06:59:36;;;;;;;33.83;17.30;;;;;;;-6.92;51.12;96723.64;1824337;78;21127;-51
2021/01/18 07:02:18;;;;;;;34.35;15.98;;;;;;;-7.05;51.60;96729.09;1792555;79;21132;-53
2021/01/18 07:04:47;;;;;;;37.95;18.17;;;;;;;-7.18;51.72;96729.50;1816042;78;21131;-51
2021/01/18 07:07:30;;;;;;;43.15;18.90;;;;;;;-7.17;52.11;96731.19;1810386;78;21140;-51
2021/01/18 07:10:03;;;;;;;41.00;18.15;;;;;;;-7.06;52.17;96732.45;1796665;78;21072;-51
2021/01/18 07:12:31;;;;;;;44.27;18.92;;;;;;;-6.94;52.21;96726.17;1822787;78;21492;-51
2021/01/18 07:15:05;;;;;;;34.43;17.35;;;;;;;-6.82;52.04;96735.41;1816264;78;21170;-51
2021/01/18 07:17:50;;;;;;;33.18;17.37;;;;;;;-6.76;51.73;96737.08;1824919;78;21207;-53
2021/01/18 07:20:23;;;;;;;34.25;16.25;;;;;;;-6.74;51.43;96735.42;1809957;78;21040;-52
2021/01/18 07:23:14;;;;;;;36.03;16.77;;;;;;;-6.83;51.63;96736.67;1789185;79;21068;-52
2021/01/18 07:25:46;;;;;;;34.88;17.67;;;;;;;-6.87;51.55;96740.88;1817819;78;21291;-52
2021/01/18 07:28:20;;;;;;;36.17;16.65;;;;;;;-6.90;51.63;96748.45;1824995;78;21146;-53
2021/01/18 07:30:51;;;;;;;38.40;18.05;;;;;;;-6.83;51.52;96750.12;1817415;78;21100;-51
2021/01/18 07:33:19;;;;;;;35.45;17.50;;;;;;;-6.73;51.49;96748.44;1792960;79;21036;-51
2021/01/18 07:35:47;;;;;;;35.10;17.52;;;;;;;-6.66;51.23;96749.71;1820520;78;21191;-51
2021/01/18 07:38:22;;;;;;;366.03;176.73;;;;;;;-6.55;50.83;96749.69;1813597;78;21128;-50
2021/01/18 07:41:12;;;;;;;44.40;21.07;;;;;;;-6.51;51.08;96753.91;1790277;78;21526;-51
2021/01/18 07:43:45;;;;;;;37.83;17.57;;;;;;;-6.49;50.60;96757.27;1809240;78;21045;-50
2021/01/18 07:46:30;;;;;;;31.50;15.53;;;;;;;-6.59;50.80;96769.48;1814262;78;21828;-51
2021/01/18 07:49:01;;;;;;;41.77;19.42;;;;;;;-6.62;50.40;96762.34;1813018;78;21066;-51
2021/01/18 07:51:34;;;;;;;38.53;19.27;;;;;;;-6.75;50.48;96772.84;1777510;79;21216;-51
2021/01/18 07:54:02;;;;;;;41.83;19.02;;;;;;;-6.79;50.50;96770.75;1805042;78;21171;-52
2021/01/18 07:56:31;;;;;;;37.67;17.57;;;;;;;-6.76;50.54;96776.20;1777970;79;21696;-51
2021/01/18 08:01:44;;;;;;;36.93;17.90;;;;;;;-6.52;50.32;96767.36;1774975;79;22276;-54
2021/01/18 08:04:23;;;;;;;41.55;19.45;;;;;;;-6.52;50.16;96774.10;1726686;81;21069;-51
2021/01/18 08:07:09;;;;;;;38.02;18.80;;;;;;;-6.46;50.32;96776.63;1738584;81;21374;-51
2021/01/18 08:09:37;;;;;;;40.08;18.20;;;;;;;-6.31;50.17;96780.83;1726300;81;21235;-51
2021/01/18 08:12:32;;;;;;;38.13;17.57;;;;;;;-6.19;49.64;96781.23;1736308;82;21070;-50
2021/01/18 08:15:10;;;;;;;31.40;16.87;;;;;;;-6.09;49.58;96789.63;1716236;83;21120;-51
2021/01/18 08:17:37;;;;;;;35.03;18.15;;;;;;;-6.06;49.00;96786.67;1699015;84;21640;-55
2021/01/18 08:20:22;;;;;;;37.23;18.25;;;;;;;-6.00;48.98;96789.63;1679185;84;21219;-50
2021/01/18 08:22:50;;;;;;;40.80;19.65;;;;;;;-5.93;48.78;96786.20;1670546;86;21117;-51
2021/01/18 08:25:18;;;;;;;39.73;18.05;;;;;;;-5.84;48.45;96786.19;1670450;86;21145;-51
2021/01/18 08:27:56;;;;;;;44.55;19.50;;;;;;;-5.84;48.30;96788.72;1642567;84;21158;-51
2021/01/18 08:30:39;;;;;;;36.20;18.32;;;;;;;-5.86;48.20;96788.28;1691201;84;21094;-50
2021/01/18 08:33:09;;;;;;;37.15;18.25;;;;;;;-5.81;48.32;96798.79;1670773;85;21153;-51
2021/01/18 08:35:49;;;;;;;40.88;19.40;;;;;;;-5.73;47.96;96797.08;1694801;84;21093;-51
2021/01/18 08:38:26;;;;;;;44.80;20.82;;;;;;;-5.66;47.93;96802.95;1670747;85;21154;-51
2021/01/18 08:41:05;;;;;;;41.30;19.40;;;;;;;-5.63;47.90;96812.23;1677208;83;21102;-53
2021/01/18 08:43:48;;;;;;;38.00;19.70;;;;;;;-5.49;47.76;96799.53;1821746;76;22567;-51
2021/01/18 08:46:39;;;;;;;41.48;20.80;;;;;;;-5.46;47.42;96805.44;1782392;79;21492;-51
2021/01/18 08:49:31;;;;;;;40.83;19.17;;;;;;;-5.39;47.37;96801.20;1802401;77;21195;-51
2021/01/18 08:51:58;;;;;;;39.67;19.12;;;;;;;-5.33;47.22;96804.94;1790824;79;21076;-53
2021/01/18 08:54:37;;;;;;;40.48;19.62;;;;;;;-5.27;46.78;96804.09;1783609;79;21555;-52
2021/01/18 08:57:24;;;;;;;45.65;20.40;;;;;;;-5.30;46.97;96804.93;1793423;79;21159;-51
2021/01/18 09:00:09;;;;;;;41.02;20.48;;;;;;;-5.31;46.88;96807.46;1793150;79;21175;-51
2021/01/18 09:02:39;;;;;;;42.60;20.70;;;;;;;-5.30;47.09;96806.63;1783330;79;22198;-52
2021/01/18 09:05:18;;;;;;;39.42;20.77;;;;;;;-5.27;46.91;96804.09;1778929;80;20974;-52
2021/01/18 09:07:47;;;;;;;46.33;20.45;;;;;;;-5.29;47.06;96805.80;1783200;79;21563;-51
2021/01/18 09:10:22;;;;;;;40.83;20.82;;;;;;;-5.27;47.09;96806.62;1783228;80;21119;-52
2021/01/18 09:12:50;;;;;;;42.27;19.80;;;;;;;-5.29;47.02;96804.53;1782993;78;21131;-51
2021/01/18 09:15:19;;;;;;;38.83;19.57;;;;;;;-5.30;46.83;96799.87;1749777;80;22206;-51
2021/01/18 09:17:49;;;;;;;35.68;18.82;;;;;;;-5.26;46.71;96801.98;1775384;79;21176;-51
2021/01/18 09:20:18;;;;;;;39.38;20.25;;;;;;;-5.33;46.66;96792.29;1796334;79;21029;-51
2021/01/18 09:22:46;;;;;;;41.60;19.83;;;;;;;-5.45;46.65;96796.16;1771608;79;21156;-52
2021/01/18 09:25:18;;;;;;;41.10;20.05;;;;;;;-5.48;46.79;96796.16;1773812;79;21476;-51
2021/01/18 09:27:47;;;;;;;35.70;18.85;;;;;;;-5.51;46.70;96796.17;1774787;79;21233;-52
2021/01/18 09:30:17;;;;;;;45.35;21.23;;;;;;;-5.52;46.76;96795.34;1770075;80;21160;-51
2021/01/18 09:33:00;;;;;;;40.45;19.27;;;;;;;-5.48;46.80;96799.52;1780799;80;21135;-52
2021/01/18 09:35:31;;;;;;;43.73;20.37;;;;;;;-5.42;46.83;96794.45;1769351;80;21080;-51
2021/01/18 09:37:59;;;;;;;41.02;19.50;;;;;;;-5.38;46.64;96790.21;1779127;79;21464;-51
2021/01/18 09:40:31;;;;;;;42.67;21.27;;;;;;;-5.37;46.64;96793.17;1772425;80;21296;-53
2021/01/18 09:43:00;;;;;;;39.92;20.17;;;;;;;-5.29;46.74;96790.18;1777346;78;21261;-54
2021/01/18 09:45:28;;;;;;;40.10;19.75;;;;;;;-5.21;46.57;96797.74;1772261;78;21063;-52
2021/01/18 09:48:02;;;;;;;37.38;18.35;;;;;;;-5.18;46.54;96793.50;1772868;78;21122;-52
2021/01/18 09:50:30;;;;;;;39.23;19.55;;;;;;;-5.18;46.15;96785.91;1770565;79;21178;-52
2021/01/18 09:52:57;;;;;;;42.62;20.60;;;;;;;-5.20;46.34;96782.56;1768282;78;21654;-52
2021/01/18 09:55:30;;;;;;;36.73;19.55;;;;;;;-5.15;46.26;96784.20;1773567;78;21071;-53
2021/01/18 09:58:02;;;;;;;38.92;19.85;;;;;;;-5.14;46.13;96780.84;1772707;78;21067;-52
2021/01/18 10:00:33;;;;;;;43.87;20.32;;;;;;;-5.11;46.23;96782.09;1763050;79;21060;-51
2021/01/18 10:03:01;;;;;;;36.38;18.82;;;;;;;-5.06;46.29;96784.16;1760035;81;21084;-51
2021/01/18 10:05:35;;;;;;;36.45;18.65;;;;;;;-4.98;46.16;96781.16;1791579;79;21368;-51
2021/01/18 10:08:12;;;;;;;38.60;19.15;;;;;;;-4.87;45.79;96781.94;1767960;79;21118;-51
2021/01/18 10:10:46;;;;;;;34.55;19.35;;;;;;;-4.77;45.49;96777.66;1761861;79;21071;-52
2021/01/18 10:16:12;;;;;;;42.17;21.23;;;;;;;-4.81;45.33;96781.88;1884865;75;22362;-52
2021/01/18 10:18:44;;;;;;;40.50;20.17;;;;;;;-4.83;45.44;96786.55;1767229;79;21066;-51
2021/01/18 10:21:12;;;;;;;40.95;19.60;;;;;;;-4.77;45.52;96783.13;1766314;80;21192;-51
2021/01/18 10:23:46;;;;;;;38.80;19.75;;;;;;;-4.77;45.37;96787.78;1765806;80;21113;-51
2021/01/18 10:26:24;;;;;;;35.85;18.55;;;;;;;-4.75;45.28;96791.54;1795550;79;21148;-53
2021/01/18 10:28:56;;;;;;;35.92;19.10;;;;;;;-4.76;45.04;96788.17;1845182;77;21116;-60
2021/01/18 10:31:27;;;;;;;38.28;19.23;;;;;;;-4.84;44.92;96785.69;1776636;79;21133;-52
2021/01/18 10:34:16;;;;;;;38.83;20.55;;;;;;;-4.91;45.02;96782.80;1815176;78;21443;-53
2021/01/18 10:36:47;;;;;;;41.33;19.95;;;;;;;-4.87;45.22;96786.14;1819452;77;21116;-51
2021/01/18 10:39:34;;;;;;;39.00;19.75;;;;;;;-4.83;45.16;96776.42;1816959;77;20994;-53
2021/01/18 10:42:18;;;;;;;42.43;19.25;;;;;;;-4.81;44.93;96779.34;1823514;77;21127;-53
2021/01/18 10:44:53;;;;;;;33.85;18.45;;;;;;;-4.78;44.79;96772.60;1824705;77;21102;-53
2021/01/18 10:47:28;;;;;;;37.85;19.35;;;;;;;-4.80;44.78;96776.41;1827082;77;21366;-52
2021/01/18 10:50:01;;;;;;;37.63;19.23;;;;;;;-4.77;44.93;96767.53;1830172;77;21093;-51
2021/01/18 10:52:34;;;;;;;41.13;20.12;;;;;;;-4.74;44.82;96773.81;1825321;77;21034;-53
2021/01/18 10:55:04;;;;;;;38.10;18.62;;;;;;;-4.73;44.93;96772.97;1820018;77;21022;-53
2021/01/18 11:08:57;;;;;;;35.97;18.43;;;;;;;-4.75;44.34;96773.82;1775773;79;22365;-52
2021/01/18 11:11:28;;;;;;;219.55;107.90;;;;;;;-4.81;44.54;96770.48;1743667;81;21080;-51
2021/01/18 11:14:03;;;;;;;257.55;109.45;;;;;;;-4.81;45.25;96770.92;1740839;81;21207;-53
2021/01/18 11:16:31;;;;;;;70.80;28.27;;;;;;;-4.74;45.57;96770.02;1739989;81;21194;-54
2021/01/18 11:19:04;;;;;;;45.33;21.02;;;;;;;-4.72;45.18;96763.67;1743256;81;21205;-52
2021/01/18 11:21:33;;;;;;;42.33;21.17;;;;;;;-4.74;45.10;96768.75;1740978;81;21741;-53
2021/01/18 11:26:51;;;;;;;43.50;24.32;;;;;;;-4.76;45.28;96767.09;1804649;75;27886;-52
2021/01/18 11:29:20;;;;;;;44.83;23.10;;;;;;;-4.72;45.20;96760.73;1794293;77;21520;-52
2021/01/18 11:31:48;;;;;;;44.18;21.87;;;;;;;-4.63;44.96;96767.41;1799300;79;21440;-52
2021/01/18 11:34:16;;;;;;;38.55;20.68;;;;;;;-4.62;45.04;96762.34;1790808;77;21186;-52
2021/01/18 11:36:45;;;;;;;42.03;20.92;;;;;;;-4.54;44.98;96758.89;1792015;77;21183;-52
2021/01/18 11:39:13;;;;;;;44.03;20.80;;;;;;;-4.41;44.77;96760.91;1799233;79;21061;-53
2021/01/18 11:41:41;;;;;;;43.10;20.73;;;;;;;-4.35;44.27;96754.52;1794374;77;21103;-52
2021/01/18 11:44:09;;;;;;;46.20;21.95;;;;;;;-4.23;44.16;96758.63;1794556;77;21271;-53
2021/01/18 11:46:37;;;;;;;46.47;21.20;;;;;;;-4.17;44.04;96760.67;1800373;77;21124;-52
2021/01/18 11:49:05;;;;;;;41.10;20.48;;;;;;;-4.09;44.06;96760.61;1796459;79;21120;-52
2021/01/18 11:51:33;;;;;;;39.53;20.97;;;;;;;-4.03;43.88;96760.56;1798591;77;27999;-53
2021/01/18 11:54:01;;;;;;;41.80;19.95;;;;;;;-3.98;43.73;96760.08;1725546;79;21091;-53
2021/01/18 11:56:32;;;;;;;39.95;20.65;;;;;;;-3.95;43.44;96758.78;1807140;77;21362;-53
2021/01/18 11:59:00;;;;;;;44.08;20.85;;;;;;;-3.92;43.12;96749.85;1786100;77;21578;-53
2021/01/18 12:01:27;;;;;;;42.38;21.68;;;;;;;-3.96;43.27;96744.86;1789691;77;21075;-52
2021/01/18 12:03:56;;;;;;;44.18;22.10;;;;;;;-4.01;43.18;96751.23;1804300;77;21111;-52
2021/01/18 12:06:38;;;;;;;;;;;;;;;-4.00;43.42;96743.20;1792271;77;21049;-53
2021/01/18 12:09:09;;;;;;;45.78;19.23;;;;;;;-3.93;43.22;96739.32;1780293;79;21313;-52